Time;durP1;ratioP1;P1;durP2;ratioP2;P2;SDS_P1;SDS_P2;PMS_P1;PMS_P2;Temp;Humidity;BMP_temperature;BMP_pressure;BME280_temperature;BME280_humidity;BME280_pressure;Samples;Min_cycle;Max_cycle;Signal;HPM_P1;HPM_P2
2022/07/28 00:00:45;;;;;;;14.45;9.93;;;;;;;21.91;82.06;99060.22;5094149;28;20068;-60
2022/07/28 00:03:12;;;;;;;12.05;9.85;;;;;;;22.02;81.79;99067.22;5092413;28;20113;-59
2022/07/28 00:05:38;;;;;;;10.93;8.52;;;;;;;22.01;81.43;99068.19;5094124;28;20044;-59
2022/07/28 00:08:04;;;;;;;12.45;8.75;;;;;;;22.03;81.04;99082.13;5098191;28;20131;-59
2022/07/28 00:10:31;;;;;;;13.85;9.38;;;;;;;22.00;80.85;99090.31;5095001;28;20051;-60
2022/07/28 00:12:58;;;;;;;13.02;9.43;;;;;;;21.98;80.79;99079.06;5093203;28;20038;-58
2022/07/28 00:15:25;;;;;;;13.02;9.98;;;;;;;21.91;80.18;99073.44;5091915;28;20085;-59
2022/07/28 00:17:51;;;;;;;14.13;9.52;;;;;;;21.92;80.52;99075.13;5095004;28;20118;-59
2022/07/28 00:20:17;;;;;;;12.75;10.07;;;;;;;21.74;80.33;99033.59;5112333;28;20041;-59
2022/07/28 00:22:43;;;;;;;10.07;8.57;;;;;;;21.97;80.58;99080.03;5095837;28;20058;-59
2022/07/28 00:25:10;;;;;;;12.85;10.30;;;;;;;21.96;80.46;99076.53;5097411;28;20039;-59
2022/07/28 00:27:36;;;;;;;11.82;9.55;;;;;;;21.78;80.38;99053.50;5113270;28;20040;-59
2022/07/28 00:30:07;;;;;;;13.13;10.18;;;;;;;21.91;80.41;99088.50;5095562;28;20047;-59
2022/07/28 00:32:33;;;;;;;12.98;10.02;;;;;;;21.87;80.50;99087.94;5094577;28;20032;-59
2022/07/28 00:34:59;;;;;;;14.45;10.43;;;;;;;21.65;80.71;99050.31;5092829;28;20116;-59
2022/07/28 00:37:25;;;;;;;13.55;10.68;;;;;;;21.84;80.71;99076.78;5111040;28;20031;-58
2022/07/28 00:39:50;;;;;;;15.30;10.82;;;;;;;21.81;81.20;99083.19;5093186;28;20055;-60
2022/07/28 00:42:17;;;;;;;16.00;11.57;;;;;;;21.76;81.28;99074.00;5100127;28;20039;-60
2022/07/28 00:44:43;;;;;;;15.73;11.43;;;;;;;21.77;81.45;99086.25;5104528;28;20047;-59
2022/07/28 00:47:10;;;;;;;14.77;11.57;;;;;;;21.73;81.69;99082.19;5104027;28;20043;-59
2022/07/28 00:49:36;;;;;;;13.93;10.77;;;;;;;21.69;82.01;99081.63;5096450;28;20043;-58
2022/07/28 00:52:04;;;;;;;17.02;10.63;;;;;;;21.66;82.39;99084.56;5093008;28;20043;-59
2022/07/28 00:54:30;;;;;;;13.50;10.80;;;;;;;21.41;82.62;99042.75;5076131;28;20400;-59
2022/07/28 00:56:56;;;;;;;14.52;10.40;;;;;;;21.44;82.83;99051.25;5112214;28;20035;-59
2022/07/28 00:59:22;;;;;;;14.70;10.32;;;;;;;21.51;82.99;99067.44;5096666;28;20047;-59
2022/07/28 01:01:48;;;;;;;14.88;11.82;;;;;;;21.56;83.24;99081.88;5105886;28;20465;-59
2022/07/28 01:04:14;;;;;;;18.88;12.52;;;;;;;21.56;83.37;99076.59;5106343;28;20096;-59
2022/07/28 01:07:14;;;;;;;19.25;12.45;;;;;;;21.56;83.66;99075.78;5076182;28;20117;-59
2022/07/28 01:10:04;;;;;;;16.40;11.63;;;;;;;21.54;83.48;99072.44;5103368;28;20086;-59
2022/07/28 01:12:48;;;;;;;18.60;11.40;;;;;;;21.54;83.61;99075.91;5091191;28;20096;-60
2022/07/28 01:15:39;;;;;;;15.75;11.35;;;;;;;21.52;84.57;99067.28;5092082;28;20527;-59
2022/07/28 01:18:06;;;;;;;17.27;12.05;;;;;;;21.53;84.63;99065.47;5097448;28;20073;-59
2022/07/28 01:20:38;;;;;;;17.10;11.00;;;;;;;21.37;84.95;99038.72;5100513;28;20040;-59
2022/07/28 01:23:08;;;;;;;16.85;11.68;;;;;;;21.48;85.08;99065.88;5098673;28;20043;-59
2022/07/28 01:26:12;;;;;;;15.65;12.57;;;;;;;21.48;85.61;99057.09;5105553;28;20522;-59
2022/07/28 01:29:07;;;;;;;17.45;13.15;;;;;;;21.47;85.54;99068.66;5077319;28;20042;-59
2022/07/28 01:31:41;;;;;;;14.80;12.07;;;;;;;21.45;85.44;99066.16;5092243;28;20046;-59
2022/07/28 01:34:11;;;;;;;18.35;12.57;;;;;;;21.44;85.80;99061.84;5091686;28;20036;-60
2022/07/28 01:36:44;;;;;;;;;;;;;;;21.45;86.08;99062.69;5111364;28;20510;-58
2022/07/28 01:39:11;;;;;;;17.13;12.32;;;;;;;21.40;86.06;99071.03;5097246;28;20384;-58
2022/07/28 01:41:38;;;;;;;18.45;12.50;;;;;;;21.40;86.49;99063.09;5081644;28;20516;-58
2022/07/28 01:44:11;;;;;;;14.93;11.73;;;;;;;21.41;86.37;99063.91;5083690;28;20047;-58
2022/07/28 01:46:37;;;;;;;15.70;11.43;;;;;;;21.26;86.54;99033.53;5091266;28;20043;-57
2022/07/28 01:49:05;;;;;;;16.88;11.98;;;;;;;21.14;86.59;99012.47;5089312;28;20040;-58
2022/07/28 01:51:32;;;;;;;16.10;11.38;;;;;;;21.45;86.82;99057.38;5090476;28;20050;-59
2022/07/28 01:54:00;;;;;;;18.08;12.82;;;;;;;21.26;86.75;99020.31;5089795;28;20101;-59
2022/07/28 01:56:27;;;;;;;16.58;12.55;;;;;;;21.47;86.34;99052.78;5091365;28;20085;-58
2022/07/28 01:58:55;;;;;;;17.90;12.48;;;;;;;21.48;86.02;99051.81;5056958;28;20048;-58
2022/07/28 02:01:23;;;;;;;17.08;11.60;;;;;;;21.48;86.15;99054.47;5089721;28;20495;-58
2022/07/28 02:03:50;;;;;;;18.38;12.75;;;;;;;21.49;86.34;99048.19;5089264;28;20036;-59
2022/07/28 02:06:17;;;;;;;16.88;12.55;;;;;;;21.48;86.16;99051.81;5090496;28;20042;-58
2022/07/28 02:08:44;;;;;;;17.13;12.15;;;;;;;21.49;86.50;99054.34;5091191;28;20044;-59
2022/07/28 02:13:55;;;;;;;15.40;11.88;;;;;;;21.55;86.17;99064.38;5090249;28;20043;-58
2022/07/28 02:16:22;;;;;;;16.02;12.10;;;;;;;21.63;86.11;99063.66;5090526;28;20044;-58
2022/07/28 02:18:48;;;;;;;16.73;12.60;;;;;;;21.55;85.89;99039.72;5091046;28;20040;-59
2022/07/28 02:21:15;;;;;;;18.73;12.43;;;;;;;21.75;85.52;99065.22;5091272;28;20144;-58
2022/07/28 02:23:42;;;;;;;16.27;11.90;;;;;;;21.81;85.17;99048.78;5092073;28;20590;-58
2022/07/28 02:26:10;;;;;;;17.42;12.55;;;;;;;21.87;85.00;99058.00;5096733;28;20039;-58
2022/07/28 02:28:36;;;;;;;18.75;12.75;;;;;;;21.90;84.67;99058.53;5109800;28;20036;-58
2022/07/28 02:31:06;;;;;;;16.58;12.45;;;;;;;21.93;84.63;99057.41;5111497;28;20040;-58
2022/07/28 02:33:33;;;;;;;18.95;12.77;;;;;;;21.93;84.26;99055.59;5093890;28;20044;-58
2022/07/28 02:36:04;;;;;;;18.38;12.73;;;;;;;21.96;84.29;99068.59;5074180;28;20046;-59
2022/07/28 02:38:43;;;;;;;16.23;13.60;;;;;;;21.98;84.07;99057.88;5070414;28;20036;-58
2022/07/28 02:41:14;;;;;;;18.23;13.02;;;;;;;21.99;83.98;99059.53;5079089;28;20036;-59
2022/07/28 02:43:42;;;;;;;16.35;12.93;;;;;;;22.05;83.82;99063.44;5092802;28;20042;-59
2022/07/28 02:46:10;;;;;;;17.58;13.40;;;;;;;22.12;83.57;99061.91;5088840;28;20097;-58
2022/07/28 02:48:38;;;;;;;16.02;13.07;;;;;;;22.22;83.32;99070.66;5090732;28;20046;-60
2022/07/28 02:51:04;;;;;;;18.52;13.35;;;;;;;22.19;82.76;99053.25;5095871;28;20039;-59
2022/07/28 02:53:30;;;;;;;20.50;12.98;;;;;;;22.19;82.16;99036.53;5102262;28;20040;-59
2022/07/28 02:55:56;;;;;;;17.25;13.25;;;;;;;22.52;81.94;99081.06;5090408;28;20051;-59
2022/07/28 02:58:23;;;;;;;20.95;12.88;;;;;;;22.60;81.35;99075.91;5091797;28;20081;-59
2022/07/28 03:00:50;;;;;;;18.40;13.63;;;;;;;22.72;80.88;99084.53;5101929;28;20075;-59
2022/07/28 03:03:17;;;;;;;18.60;13.25;;;;;;;22.79;80.59;99081.19;5089292;28;20110;-60
2022/07/28 03:05:44;;;;;;;15.65;12.77;;;;;;;22.87;80.25;99080.47;5090473;28;20051;-59
2022/07/28 03:08:10;;;;;;;18.67;14.60;;;;;;;22.91;79.84;99081.00;5090840;28;20071;-59
2022/07/28 03:10:36;;;;;;;21.15;13.85;;;;;;;22.99;79.15;99089.06;5095107;28;20507;-59
2022/07/28 03:13:04;;;;;;;22.70;14.05;;;;;;;23.07;79.00;99081.22;5108534;28;20043;-59
2022/07/28 03:15:31;;;;;;;21.27;14.23;;;;;;;22.95;78.57;99054.06;5109393;28;20039;-59
2022/07/28 03:17:59;;;;;;;18.60;14.30;;;;;;;23.18;78.35;99081.03;5105445;28;20128;-58
2022/07/28 03:20:24;;;;;;;19.30;14.15;;;;;;;23.19;78.21;99080.88;5091573;28;20036;-59
2022/07/28 03:22:50;;;;;;;24.85;18.15;;;;;;;23.27;77.99;99081.97;5098531;28;20066;-59
2022/07/28 03:25:23;;;;;;;26.67;16.83;;;;;;;23.33;77.80;99081.38;5090347;28;20039;-58
2022/07/28 03:27:50;;;;;;;22.55;15.30;;;;;;;23.34;77.85;99069.78;5090285;28;20063;-59
2022/07/28 03:30:18;;;;;;;22.77;14.60;;;;;;;23.41;78.22;99081.44;5085951;28;20130;-59
2022/07/28 03:32:51;;;;;;;22.58;15.60;;;;;;;23.46;77.99;99084.53;5078431;28;20040;-59
2022/07/28 03:35:17;;;;;;;21.77;15.07;;;;;;;23.42;78.18;99083.97;5098298;28;20039;-59
2022/07/28 03:38:03;;;;;;;25.33;15.77;;;;;;;23.43;77.98;99090.94;5089964;28;20193;-59
2022/07/28 03:40:31;;;;;;;18.95;15.38;;;;;;;23.40;77.33;99093.03;5094611;28;20048;-59
2022/07/28 03:42:57;;;;;;;33.58;16.63;;;;;;;23.28;76.76;99059.75;5084555;28;20039;-59
2022/07/28 03:45:23;;;;;;;22.33;16.45;;;;;;;23.52;76.50;99086.59;5090921;28;20096;-59
2022/07/28 03:47:52;;;;;;;22.50;14.77;;;;;;;23.48;76.21;99064.00;5094909;28;20051;-59
2022/07/28 03:50:21;;;;;;;26.60;17.40;;;;;;;23.70;75.54;99076.00;5089221;28;20112;-59
2022/07/28 03:52:47;;;;;;;24.65;17.33;;;;;;;23.70;74.99;99063.56;5078948;28;20251;-59
2022/07/28 03:55:14;;;;;;;21.08;15.90;;;;;;;23.84;74.83;99081.63;5107612;28;20102;-58
2022/07/28 03:57:40;;;;;;;22.50;16.08;;;;;;;23.88;75.09;99084.78;5110290;28;20039;-59
2022/07/28 04:00:06;;;;;;;21.23;15.52;;;;;;;23.77;75.18;99063.78;5102374;28;20176;-59
2022/07/28 04:02:42;;;;;;;29.13;16.10;;;;;;;23.82;75.24;99059.69;5106805;28;20066;-59
2022/07/28 04:05:12;;;;;;;24.92;16.23;;;;;;;23.98;74.88;99081.06;5089844;28;20511;-58
2022/07/28 04:07:39;;;;;;;22.67;17.38;;;;;;;23.99;74.46;99082.75;5090968;28;20059;-59
2022/07/28 04:10:06;;;;;;;21.88;15.95;;;;;;;23.99;74.76;99084.56;5089436;28;20051;-60
2022/07/28 04:12:49;;;;;;;23.98;16.60;;;;;;;23.97;74.49;99089.22;5088623;28;20043;-59
2022/07/28 04:15:16;;;;;;;25.27;17.15;;;;;;;23.94;74.52;99090.34;5089608;28;20036;-58
2022/07/28 04:17:42;;;;;;;25.27;16.10;;;;;;;23.95;74.84;99093.84;5090942;28;20449;-59
2022/07/28 04:20:09;;;;;;;20.83;16.58;;;;;;;23.92;75.23;99086.16;5094500;28;20036;-59
2022/07/28 04:22:35;;;;;;;24.20;18.13;;;;;;;23.95;74.95;99094.69;5090372;28;20048;-59
2022/07/28 04:25:01;;;;;;;26.23;17.58;;;;;;;23.97;74.63;99095.34;5093322;28;20050;-60
2022/07/28 04:27:29;;;;;;;25.20;18.02;;;;;;;23.86;74.56;99069.03;5090304;28;20044;-61
2022/07/28 04:29:55;;;;;;;27.65;17.42;;;;;;;24.02;74.50;99084.28;5089606;28;20465;-60
2022/07/28 04:32:20;;;;;;;22.25;16.80;;;;;;;24.08;74.24;99089.78;5089425;28;20547;-60
2022/07/28 04:34:47;;;;;;;25.00;17.17;;;;;;;24.16;74.11;99097.00;5092848;28;20067;-60
2022/07/28 04:37:14;;;;;;;24.27;17.35;;;;;;;24.12;74.13;99068.25;5108374;28;20040;-60
2022/07/28 04:39:40;;;;;;;26.35;16.92;;;;;;;24.35;73.98;99094.22;5089964;28;20135;-59
2022/07/28 04:42:06;;;;;;;23.58;16.33;;;;;;;24.42;73.41;99091.78;5086759;28;20036;-59
2022/07/28 04:44:32;;;;;;;22.60;16.67;;;;;;;24.51;73.22;99090.84;5110070;28;20489;-59
2022/07/28 04:46:58;;;;;;;24.40;17.73;;;;;;;24.57;73.20;99084.06;5094970;28;20039;-59
2022/07/28 04:49:24;;;;;;;22.35;16.27;;;;;;;24.65;73.19;99089.44;5093994;28;20055;-60
2022/07/28 04:51:51;;;;;;;23.25;15.57;;;;;;;24.78;72.37;99088.03;5093055;28;20123;-59
2022/07/28 04:54:18;;;;;;;24.55;17.05;;;;;;;24.89;72.30;99097.59;5099023;28;20043;-59
2022/07/28 04:56:44;;;;;;;20.63;15.18;;;;;;;24.74;71.44;99059.25;5102154;28;20619;-59
2022/07/28 04:59:09;;;;;;;23.23;15.32;;;;;;;25.03;70.73;99091.69;5100412;28;20503;-59
2022/07/28 05:01:37;;;;;;;24.25;15.05;;;;;;;25.12;70.12;99089.91;5103607;28;20040;-59
2022/07/28 05:04:04;;;;;;;20.30;14.55;;;;;;;24.96;69.04;99061.41;5102536;28;20122;-59
2022/07/28 05:06:35;;;;;;;24.25;16.08;;;;;;;25.28;69.03;99095.28;5111489;28;20125;-60
2022/07/28 05:09:02;;;;;;;21.13;15.45;;;;;;;25.20;68.89;99079.28;5098366;28;20565;-59
2022/07/28 05:11:28;;;;;;;21.60;15.77;;;;;;;25.31;68.56;99103.78;5092359;28;20048;-60
2022/07/28 05:13:54;;;;;;;19.73;14.35;;;;;;;25.30;67.97;99103.94;5091813;28;20186;-59
2022/07/28 05:16:20;;;;;;;20.30;14.35;;;;;;;25.36;67.56;99099.81;5091170;28;20697;-59
2022/07/28 05:18:46;;;;;;;21.83;14.43;;;;;;;25.22;67.21;99067.50;5098968;28;20181;-59
2022/07/28 05:21:12;;;;;;;23.00;14.38;;;;;;;25.45;66.88;99093.50;5113010;28;20069;-59
2022/07/28 05:23:38;;;;;;;21.35;14.13;;;;;;;25.51;66.79;99093.72;5100750;28;20427;-59
2022/07/28 05:26:05;;;;;;;18.98;14.05;;;;;;;25.33;65.68;99063.72;5092187;28;20040;-58
2022/07/28 05:28:32;;;;;;;21.20;13.27;;;;;;;25.57;65.49;99105.56;5100981;28;20043;-59
2022/07/28 05:30:58;;;;;;;25.40;15.70;;;;;;;25.64;65.46;99107.44;5112157;28;20515;-59
2022/07/28 05:33:24;;;;;;;20.70;13.20;;;;;;;25.70;65.36;99108.59;5101312;28;20038;-58
2022/07/28 05:35:53;;;;;;;20.67;13.38;;;;;;;25.77;64.80;99098.13;5096584;28;20032;-58
2022/07/28 05:38:19;;;;;;;22.80;14.40;;;;;;;25.86;64.58;99095.31;5073983;28;20396;-59
2022/07/28 05:40:47;;;;;;;18.08;12.85;;;;;;;26.05;64.20;99100.34;5087551;28;20048;-58
2022/07/28 05:43:13;;;;;;;17.00;12.35;;;;;;;26.12;63.17;99098.66;5088981;28;20574;-60
2022/07/28 05:45:38;;;;;;;19.85;11.48;;;;;;;26.07;61.94;99081.50;5106694;28;20127;-59
2022/07/28 05:48:04;;;;;;;17.38;13.38;;;;;;;26.21;61.73;99096.88;5112379;28;20168;-59
2022/07/28 05:50:30;;;;;;;18.88;11.77;;;;;;;26.30;61.33;99111.03;5107086;28;20063;-59
2022/07/28 05:52:56;;;;;;;19.33;11.77;;;;;;;26.35;60.88;99098.06;5091706;28;20533;-60
2022/07/28 05:55:22;;;;;;;17.90;11.43;;;;;;;26.46;60.24;99100.38;5104446;28;20050;-59
2022/07/28 05:57:47;;;;;;;20.67;11.27;;;;;;;26.52;59.42;99105.03;5111831;28;20059;-59
2022/07/28 06:00:15;;;;;;;13.98;10.48;;;;;;;26.65;58.93;99100.00;5095025;28;20063;-60
2022/07/28 06:02:46;;;;;;;15.13;10.80;;;;;;;26.76;58.58;99102.34;5092184;28;20105;-59
2022/07/28 06:05:12;;;;;;;16.23;11.18;;;;;;;26.83;58.19;99102.50;5103873;28;20031;-60
2022/07/28 06:07:38;;;;;;;13.93;10.43;;;;;;;26.76;57.80;99078.31;5111134;28;20126;-60
2022/07/28 06:10:05;;;;;;;16.15;10.00;;;;;;;27.11;57.13;99106.44;5091696;28;20472;-60
2022/07/28 06:12:31;;;;;;;14.68;10.82;;;;;;;27.32;56.70;99105.88;5091480;28;20051;-59
2022/07/28 06:14:56;;;;;;;18.77;10.63;;;;;;;27.45;56.15;99082.09;5090011;28;20040;-60
2022/07/28 06:17:22;;;;;;;18.45;10.13;;;;;;;27.76;55.39;99100.81;5091144;28;20036;-58
2022/07/28 06:19:48;;;;;;;14.70;10.32;;;;;;;27.97;54.62;99092.19;5094040;28;20463;-60
2022/07/28 06:22:14;;;;;;;13.57;10.32;;;;;;;28.25;53.98;99097.84;5095531;28;20044;-60
2022/07/28 06:24:40;;;;;;;16.88;10.20;;;;;;;28.49;53.24;99098.47;5095643;28;20507;-58
2022/07/28 06:27:06;;;;;;;17.80;10.68;;;;;;;28.39;52.68;99083.69;5089625;28;20048;-58
2022/07/28 06:29:32;;;;;;;15.77;10.38;;;;;;;28.57;52.34;99095.72;5093564;28;20085;-59
2022/07/28 06:31:58;;;;;;;16.52;10.15;;;;;;;28.58;51.72;99085.84;5094215;28;20048;-60
2022/07/28 06:34:24;;;;;;;11.73;9.27;;;;;;;28.87;51.48;99095.78;5094525;28;20088;-59
2022/07/28 06:36:50;;;;;;;14.32;9.57;;;;;;;29.11;50.60;99100.03;5089962;28;20131;-58
2022/07/28 06:39:16;;;;;;;15.55;10.07;;;;;;;29.26;49.75;99066.88;5093439;28;20035;-60
2022/07/28 06:41:43;;;;;;;17.88;9.55;;;;;;;29.75;49.25;99096.53;5085989;28;20104;-59
2022/07/28 06:44:09;;;;;;;13.55;9.63;;;;;;;30.44;48.09;99093.31;5090306;28;20118;-58
2022/07/28 06:46:35;;;;;;;16.50;9.80;;;;;;;31.28;46.62;99100.34;5089638;28;20473;-59
2022/07/28 06:49:02;;;;;;;15.23;9.63;;;;;;;31.74;45.20;99094.31;5092776;28;20058;-60
2022/07/28 06:51:28;;;;;;;12.57;8.80;;;;;;;32.34;43.50;99088.03;5090158;28;20044;-59
2022/07/28 06:53:54;;;;;;;14.60;9.43;;;;;;;32.62;42.24;99090.50;5055668;28;20055;-59
2022/07/28 06:56:21;;;;;;;12.60;8.93;;;;;;;32.77;41.01;99083.06;5099062;28;20039;-59
2022/07/28 06:58:46;;;;;;;12.80;9.65;;;;;;;33.32;40.39;99086.25;5104764;28;20452;-59
2022/07/28 07:01:13;;;;;;;18.80;9.10;;;;;;;33.91;39.40;99078.75;5088796;28;20024;-59
2022/07/28 07:03:39;;;;;;;12.43;9.20;;;;;;;34.43;37.47;99090.22;5086686;28;20049;-60
2022/07/28 07:06:05;;;;;;;12.07;8.20;;;;;;;35.07;36.93;99089.00;5083878;28;20040;-60
2022/07/28 07:08:31;;;;;;;12.55;9.20;;;;;;;35.81;35.14;99096.00;5077595;28;20088;-60
2022/07/28 07:10:57;;;;;;;10.43;8.75;;;;;;;36.16;34.86;99088.88;5087872;28;20060;-60
2022/07/28 07:13:23;;;;;;;13.95;8.82;;;;;;;36.99;33.59;99077.03;5088783;28;20040;-60
2022/07/28 07:15:49;;;;;;;10.05;8.68;;;;;;;37.05;32.91;99095.06;5088923;28;20523;-55
2022/07/28 07:18:15;;;;;;;14.25;9.50;;;;;;;36.69;33.23;99090.72;5089602;28;20051;-52
2022/07/28 07:20:41;;;;;;;14.20;10.18;;;;;;;36.96;32.85;99094.56;5088599;28;20047;-51
2022/07/28 07:23:06;;;;;;;11.70;9.43;;;;;;;37.40;32.70;99095.81;5088116;28;20048;-54
2022/07/28 07:25:32;;;;;;;13.90;9.43;;;;;;;38.53;31.45;99094.97;5089382;28;20069;-57
2022/07/28 07:27:58;;;;;;;12.10;9.93;;;;;;;38.32;30.65;99099.22;5088274;28;20047;-52
2022/07/28 07:30:24;;;;;;;9.52;8.48;;;;;;;38.25;30.51;99101.28;5087520;28;20450;-57
2022/07/28 07:32:50;;;;;;;10.95;9.60;;;;;;;38.13;30.73;99100.53;5085521;28;20040;-49
2022/07/28 07:35:15;;;;;;;14.15;9.95;;;;;;;37.55;30.98;99055.47;5088167;28;20046;-55
2022/07/28 07:37:41;;;;;;;9.77;8.77;;;;;;;37.89;30.70;99093.56;5088369;28;20051;-50
2022/07/28 07:40:07;;;;;;;9.63;8.63;;;;;;;38.82;29.87;99099.22;5089285;28;20039;-52
2022/07/28 07:42:33;;;;;;;11.23;8.55;;;;;;;38.87;29.75;99095.75;5083095;28;20047;-54
2022/07/28 07:44:59;;;;;;;10.60;8.20;;;;;;;36.60;32.16;99090.19;5089412;28;20424;-50
2022/07/28 07:47:26;;;;;;;10.15;7.95;;;;;;;34.81;34.31;99082.81;5089247;28;20058;-55
2022/07/28 07:49:51;;;;;;;9.45;8.40;;;;;;;34.98;34.85;99079.50;5089295;28;20040;-51
2022/07/28 07:52:17;;;;;;;9.80;7.68;;;;;;;36.03;33.74;99089.03;5089247;28;20032;-55
2022/07/28 07:54:44;;;;;;;8.93;8.02;;;;;;;35.53;33.84;99086.59;5089240;28;20127;-53
2022/07/28 07:57:10;;;;;;;9.35;8.35;;;;;;;35.28;34.44;99090.47;5071165;28;20036;-55
2022/07/28 07:59:36;;;;;;;12.50;8.35;;;;;;;34.62;35.28;99099.19;5095500;28;20123;-52
2022/07/28 08:02:02;;;;;;;10.75;9.32;;;;;;;34.06;36.22;99086.53;5104222;28;20071;-52
2022/07/28 08:04:28;;;;;;;9.77;8.13;;;;;;;34.54;35.65;99085.97;5085804;28;20117;-54
2022/07/28 08:06:54;;;;;;;9.95;8.13;;;;;;;34.31;35.95;99082.00;5099519;28;20464;-49
2022/07/28 08:09:21;;;;;;;11.07;8.45;;;;;;;33.79;36.31;99074.25;5096138;28;20405;-54
2022/07/28 08:11:49;;;;;;;9.20;7.95;;;;;;;33.76;36.69;99075.47;5106550;28;20050;-51
2022/07/28 08:14:16;;;;;;;9.07;7.32;;;;;;;33.32;36.99;99035.88;5095266;28;20040;-52
2022/07/28 08:16:41;;;;;;;9.25;7.32;;;;;;;32.68;38.14;99027.78;5096025;28;20039;-51
2022/07/28 08:19:07;;;;;;;10.00;7.82;;;;;;;32.22;39.26;99035.88;5101519;28;20035;-50
2022/07/28 08:21:33;;;;;;;8.50;7.05;;;;;;;31.63;39.68;99025.03;5101463;28;20039;-49
2022/07/28 08:23:59;;;;;;;11.48;7.18;;;;;;;31.30;41.23;99038.34;5095529;28;20074;-48
2022/07/28 08:26:24;;;;;;;8.15;6.78;;;;;;;30.89;41.42;99023.03;5092640;28;20063;-49
2022/07/28 08:28:51;;;;;;;10.77;6.10;;;;;;;30.58;41.46;99010.06;5092576;28;20075;-47
2022/07/28 08:31:20;;;;;;;7.63;6.60;;;;;;;31.14;41.04;99020.72;5092869;28;20041;-53
2022/07/28 08:34:11;;;;;;;14.77;6.88;;;;;;;32.86;38.08;99025.25;5091722;28;20043;-53
2022/07/28 08:36:37;;;;;;;6.90;6.30;;;;;;;32.51;38.63;99021.97;5092680;28;20040;-50
2022/07/28 08:39:03;;;;;;;7.82;7.00;;;;;;;31.64;40.33;99005.19;5091538;28;20122;-53
2022/07/28 08:41:37;;;;;;;9.40;7.13;;;;;;;31.19;41.12;99007.53;5092195;28;20499;-53
2022/07/28 08:44:04;;;;;;;10.55;8.25;;;;;;;32.80;39.00;98999.19;5091435;28;20425;-52
2022/07/28 08:46:37;;;;;;;9.27;7.13;;;;;;;34.55;36.28;99012.81;5090588;28;20048;-54
2022/07/28 08:49:08;;;;;;;8.35;6.80;;;;;;;36.07;33.29;99004.41;5092857;28;20039;-57
2022/07/28 08:51:36;;;;;;;15.13;7.22;;;;;;;36.94;32.08;99015.41;5092357;28;20043;-55
2022/07/28 08:54:02;;;;;;;10.10;7.28;;;;;;;36.82;31.57;99004.59;5089729;28;20423;-53
2022/07/28 08:56:28;;;;;;;10.73;7.40;;;;;;;37.13;31.70;99005.25;5091724;28;20466;-56
2022/07/28 08:58:54;;;;;;;10.75;6.80;;;;;;;37.70;30.58;99001.47;5092446;28;20051;-53
2022/07/28 09:01:22;;;;;;;8.07;6.15;;;;;;;37.49;31.00;99002.16;5073644;28;20476;-53
2022/07/28 09:03:48;;;;;;;9.30;6.10;;;;;;;36.30;31.88;99010.94;5092054;28;20073;-58
2022/07/28 09:06:14;;;;;;;8.55;5.97;;;;;;;34.72;33.76;99005.00;5079576;28;20405;-51
2022/07/28 09:08:41;;;;;;;14.50;6.35;;;;;;;34.66;34.20;99014.78;5089669;28;20040;-50
2022/07/28 09:11:07;;;;;;;12.50;6.55;;;;;;;35.40;33.41;99007.50;5090193;28;20052;-52
2022/07/28 09:13:34;;;;;;;11.40;6.32;;;;;;;34.21;35.15;99006.09;5091009;28;20036;-50
2022/07/28 09:16:00;;;;;;;9.27;6.57;;;;;;;33.37;36.94;99010.97;5069609;28;20524;-52
2022/07/28 09:18:27;;;;;;;8.02;7.25;;;;;;;32.47;38.73;99003.78;5090961;28;20431;-51
2022/07/28 09:20:53;;;;;;;11.85;7.40;;;;;;;32.00;39.68;98978.75;5092107;28;20050;-53
2022/07/28 09:23:20;;;;;;;10.40;7.57;;;;;;;31.71;40.32;99014.94;5091474;28;20088;-54
2022/07/28 09:25:46;;;;;;;10.07;7.13;;;;;;;31.48;41.33;99014.41;5090782;28;20503;-52
2022/07/28 09:28:13;;;;;;;10.10;7.50;;;;;;;31.56;41.24;98996.22;5090422;28;20090;-51
2022/07/28 09:30:48;;;;;;;7.90;6.83;;;;;;;31.52;40.57;98999.53;5091469;28;20489;-53
2022/07/28 09:33:20;;;;;;;10.05;6.38;;;;;;;31.07;41.48;98999.22;5089638;28;20282;-50
2022/07/28 09:35:50;;;;;;;11.70;8.10;;;;;;;31.58;41.17;98998.75;5091904;28;20082;-51
2022/07/28 09:38:17;;;;;;;7.20;6.50;;;;;;;34.43;36.66;99001.94;5092213;28;20036;-53
2022/07/28 09:40:50;;;;;;;8.98;6.85;;;;;;;36.06;33.37;99004.69;5091269;28;20047;-52
2022/07/28 09:43:16;;;;;;;7.63;6.55;;;;;;;34.70;35.00;98988.22;5089110;28;20480;-51
2022/07/28 09:45:42;;;;;;;7.88;7.07;;;;;;;33.49;37.24;98985.84;5090769;28;20127;-50
2022/07/28 09:48:12;;;;;;;10.63;6.70;;;;;;;32.68;38.40;98965.84;5091012;28;20135;-53
2022/07/28 09:50:39;;;;;;;10.27;7.45;;;;;;;32.43;39.21;98979.16;5092034;28;20435;-54
2022/07/28 09:53:26;;;;;;;7.95;6.57;;;;;;;34.51;36.51;98981.91;5091602;28;20032;-52
2022/07/28 09:55:59;;;;;;;9.30;7.30;;;;;;;33.89;36.30;98981.00;5091563;28;20093;-51
2022/07/28 09:58:25;;;;;;;8.60;7.78;;;;;;;33.39;36.89;98947.75;5091833;28;20131;-48
2022/07/28 10:01:11;;;;;;;8.93;6.88;;;;;;;34.69;35.52;98992.78;5091858;28;20495;-54
2022/07/28 10:03:41;;;;;;;7.40;6.75;;;;;;;33.57;36.10;98990.13;5071399;28;20043;-51
2022/07/28 10:06:13;;;;;;;8.45;6.50;;;;;;;32.58;37.36;98992.34;5072692;28;20044;-52
2022/07/28 10:08:44;;;;;;;7.05;6.30;;;;;;;32.16;38.23;98983.72;5091486;28;20063;-51
2022/07/28 10:11:11;;;;;;;9.60;7.75;;;;;;;32.50;38.53;99008.75;5090919;28;20090;-51
2022/07/28 10:13:55;;;;;;;9.20;6.97;;;;;;;34.02;35.36;99005.16;5091562;28;20032;-50
2022/07/28 10:16:23;;;;;;;6.90;6.20;;;;;;;34.44;33.68;98981.16;5082506;28;20052;-55
2022/07/28 10:18:49;;;;;;;7.65;6.85;;;;;;;33.65;35.32;98997.97;5090036;28;20063;-51
2022/07/28 10:21:16;;;;;;;7.20;6.50;;;;;;;35.09;33.26;98998.53;5090735;28;20063;-50
2022/07/28 10:23:54;;;;;;;7.22;5.80;;;;;;;34.50;33.66;99003.72;5090839;28;20040;-51
2022/07/28 10:26:31;;;;;;;7.80;6.07;;;;;;;34.00;34.61;98993.78;5072446;28;20032;-52
2022/07/28 10:28:58;;;;;;;6.13;5.55;;;;;;;34.60;32.75;98996.78;5086877;28;20047;-51
2022/07/28 10:31:32;;;;;;;6.93;6.25;;;;;;;35.22;32.30;98995.69;5072674;28;20138;-51
2022/07/28 10:33:59;;;;;;;5.32;4.82;;;;;;;36.10;28.50;98981.50;5090566;28;20115;-49
2022/07/28 10:36:26;;;;;;;6.25;5.65;;;;;;;35.92;29.75;98995.09;5089730;28;20078;-48
2022/07/28 10:39:04;;;;;;;5.32;4.80;;;;;;;34.95;30.17;98993.53;5090287;28;20126;-51
2022/07/28 10:41:38;;;;;;;7.15;5.82;;;;;;;34.89;31.32;98994.41;5073082;28;20066;-49
2022/07/28 10:44:05;;;;;;;6.43;5.82;;;;;;;36.76;29.59;99002.00;5090907;28;20131;-48
2022/07/28 10:46:33;;;;;;;10.25;5.88;;;;;;;36.41;29.38;99008.25;5090641;28;20062;-52
2022/07/28 10:49:00;;;;;;;6.82;6.20;;;;;;;34.88;31.99;99023.31;5089371;28;20512;-53
2022/07/28 10:51:27;;;;;;;7.97;6.07;;;;;;;34.20;33.48;99017.94;5087963;28;20073;-51
2022/07/28 10:54:11;;;;;;;9.32;6.30;;;;;;;33.64;34.79;99009.78;5089209;28;20044;-53
2022/07/28 10:56:51;;;;;;;8.82;6.82;;;;;;;32.88;36.55;99008.88;5086653;28;20046;-54
2022/07/28 10:59:38;;;;;;;8.98;6.72;;;;;;;32.47;37.59;99009.16;5088038;28;20122;-54
2022/07/28 11:02:04;;;;;;;7.75;7.05;;;;;;;32.28;38.35;98992.00;5089287;28;20433;-55
2022/07/28 11:04:46;;;;;;;7.13;6.43;;;;;;;32.62;38.79;99007.88;5089039;28;20032;-55
2022/07/28 11:07:16;;;;;;;10.73;7.57;;;;;;;33.62;37.75;99010.00;5089564;28;20043;-52
2022/07/28 11:09:43;;;;;;;9.80;6.82;;;;;;;35.23;35.48;99015.41;5090055;28;20055;-50
2022/07/28 11:12:14;;;;;;;7.53;6.45;;;;;;;34.44;35.66;99027.88;5088811;28;20040;-52
2022/07/28 11:14:41;;;;;;;8.07;6.75;;;;;;;33.55;37.39;99033.47;5072498;28;20126;-52
2022/07/28 11:17:07;;;;;;;8.15;6.78;;;;;;;33.00;37.97;99031.41;5088368;28;20036;-54
2022/07/28 11:19:45;;;;;;;8.57;7.47;;;;;;;34.59;35.50;99038.34;5090461;28;20514;-55
2022/07/28 11:22:14;;;;;;;9.73;7.05;;;;;;;35.81;33.76;99028.38;5089764;28;20036;-53
2022/07/28 11:24:55;;;;;;;8.48;6.13;;;;;;;37.02;30.71;99027.75;5090480;28;20131;-53
2022/07/28 11:27:40;;;;;;;7.65;6.00;;;;;;;36.86;29.94;99042.88;5069909;28;20102;-51
2022/07/28 11:30:07;;;;;;;6.30;5.70;;;;;;;34.68;33.33;99049.69;5071107;28;20206;-51
2022/07/28 11:32:54;;;;;;;9.35;6.30;;;;;;;33.29;35.27;99047.06;5087927;28;20138;-50